Flight Track Log - Related Links

Times and Time Zones

All times are in EDT time to prevent confusion due to time zone crossing. See the N661WL flight status page for this flight to view local times or setup timezone preferences in your user account.

Time Position Orientation Groundspeed Altitude Reporting Facility
EDT Latitude Longitude Course Direction KTS MPH feet Rate Location/Type
Wed 08:08:18 PM 33.8500 -84.3333 231° Southwest 145 167 2,200  Level Atlanta TRACON
Wed 08:09:24 PM 33.8167 -84.3833 231° Southwest 146 168 3,800 1,228 Climbing Atlanta TRACON
Wed 08:10:25 PM 33.7833 -84.3833 180° South 151 174 4,800 595 Climbing Atlanta TRACON
Wed 08:11:25 PM 33.7333 -84.4000 195° South 188 216 5,000 100 Climbing Atlanta TRACON
Wed 08:12:25 PM 33.6667 -84.4000 180° South 197 227 5,000  Level Atlanta TRACON
Wed 08:13:25 PM 33.6167 -84.4000 180° South 219 252 5,000 50 Level Atlanta TRACON
Wed 08:14:25 PM 33.5667 -84.4000 180° South 192 221 5,100  Climbing Atlanta TRACON
Wed 08:15:19 PM 33.5167 -84.4000 180° South 198 228 5,000 -53 Descending Atlanta TRACON
Wed 08:16:19 PM 33.4667 -84.3833 164° South 197 227 5,000 50 Level Atlanta TRACON
Wed 08:17:19 PM 33.4000 -84.3833 180° South 195 224 5,100  Climbing Atlanta TRACON
Wed 08:18:19 PM 33.3500 -84.3833 180° South 190 219 5,000 -50 Descending Atlanta TRACON
Wed 08:19:19 PM 33.3000 -84.3667 164° South 184 212 5,000  Level Atlanta TRACON
Wed 08:20:13 PM 33.2500 -84.3667 180° South 185 213 5,000 27,737 Level Atlanta TRACON
Wed 08:21:13 PM 33.2000 -84.3500 164° South 188 216 57,700 48 Climbing Atlanta TRACON
Wed 08:22:19 PM 33.1500 -84.3500 180° South 187 215 5,100 -25,048 Descending Atlanta TRACON
Wed 08:23:19 PM 33.1000 -84.3500 180° South 191 220 5,100  Level Atlanta TRACON
Wed 08:24:19 PM 33.0500 -84.3500 180° South 187 215 5,100  Level Atlanta TRACON
Wed 08:25:19 PM 32.9833 -84.3333 168° South 190 219 5,100 -50 Level Atlanta TRACON
Wed 08:26:19 PM 32.9500 -84.3333 180° South 190 219 5,000 -100 Descending Atlanta TRACON
Wed 08:27:19 PM 32.8833 -84.3333 180° South 185 213 4,900  Descending Atlanta TRACON
Wed 08:28:25 PM 32.8333 -84.3000 151° Southeast 184 212 5,000 48 Climbing Atlanta TRACON
Wed 08:29:25 PM 32.7833 -84.2833 164° South 184 212 5,000  Level Atlanta TRACON
Wed 08:30:25 PM 32.7333 -84.2667 164° South 187 215 5,000  Level Atlanta TRACON
Wed 08:31:25 PM 32.6833 -84.2500 164° South 184 212 5,000  Level Atlanta TRACON
Wed 08:32:25 PM 32.6500 -84.2333 157° South 190 219 5,000  Level Atlanta TRACON
Wed 08:33:31 PM 32.5833 -84.2167 168° South 196 226 5,000  Level Atlanta TRACON
Wed 08:34:25 PM 32.5333 -84.2000 164° South 199 229 5,000  Level Atlanta TRACON
Wed 08:35:31 PM 32.4833 -84.2167 196° South 197 227 5,000  Level Atlanta TRACON
Wed 08:36:31 PM 32.4167 -84.2167 180° South 194 223 5,000 -50 Level Atlanta TRACON
Wed 08:37:31 PM 32.3667 -84.2167 180° South 196 226 4,900  Descending Atlanta TRACON
Wed 08:38:31 PM 32.3167 -84.2333 196° South 193 222 5,000 50 Climbing Atlanta TRACON
Wed 08:39:31 PM 32.2667 -84.2333 180° South 194 223 5,000 -50 Level Atlanta TRACON
Wed 08:40:31 PM 32.2167 -84.2500 196° South 195 224 4,900  Descending Atlanta TRACON
Wed 08:41:55 PM 32.1364 -84.2492 179° South 186 214 5,000 42 Climbing Jacksonville Center
Wed 08:42:54 PM 32.0842 -84.2511 182° South 186 214 5,000  Level Jacksonville Center
Wed 08:43:54 PM 32.0297 -84.2550 183° South 191 220 5,000 -50 Level Jacksonville Center
Wed 08:44:55 PM 31.9775 -84.2494 175° South 196 226 4,900 -300 Descending Jacksonville Center
Wed 08:45:54 PM 31.9214 -84.2461 177° South 196 226 4,400 -450 Descending Jacksonville Center
Wed 08:46:55 PM 31.8672 -84.2356 171° South 196 226 4,000 -450 Descending Jacksonville Center
Wed 08:47:54 PM 31.8131 -84.2275 173° South 196 226 3,500 -504 Descending Jacksonville Center
Wed 08:48:54 PM 31.7608 -84.2119 166° South 196 226 3,000 -496 Descending Jacksonville Center
Wed 08:49:55 PM 31.7089 -84.2064 175° South 196 226 2,500 -500 Descending Jacksonville Center
Wed 08:50:54 PM 31.6567 -84.1933 168° South 196 226 2,000 -508 Descending Jacksonville Center

Login

Don't have an account? Register now (free) for customized features, flight alerts, and more!